createdAt,value
2023-01-25T00:22:20.486Z,43.53
2023-01-25T00:24:49.192Z,40.28
2023-01-25T00:27:17.863Z,39.97
2023-01-25T00:29:46.288Z,40.92
2023-01-25T00:32:49.119Z,38.50
2023-01-25T00:35:17.650Z,37.40
2023-01-25T00:37:49.949Z,41.25
2023-01-25T00:40:18.916Z,40.92
2023-01-25T00:42:47.349Z,39.83
2023-01-25T00:45:15.868Z,40.10
2023-01-25T00:47:44.517Z,38.95
2023-01-25T00:50:13.099Z,41.10
2023-01-25T00:52:42.042Z,43.08
2023-01-25T00:55:12.293Z,43.07
2023-01-25T00:57:40.785Z,43.85
2023-01-25T01:03:03.577Z,41.72
2023-01-25T01:05:32.219Z,43.88
2023-01-25T01:08:01.044Z,44.38
2023-01-25T01:10:31.276Z,44.97
2023-01-25T01:12:59.799Z,42.60
2023-01-25T01:15:28.452Z,45.40
2023-01-25T01:17:57.165Z,43.15
2023-01-25T01:20:25.918Z,43.00
2023-01-25T01:22:55.434Z,44.97
2023-01-25T01:25:23.938Z,42.45
2023-01-25T01:27:53.717Z,45.30
2023-01-25T01:32:53.068Z,43.15
2023-01-25T01:35:21.700Z,45.70
2023-01-25T01:37:50.131Z,42.13
2023-01-25T01:40:24.055Z,41.95
2023-01-25T01:43:02.578Z,42.33
2023-01-25T01:45:52.812Z,40.00
2023-01-25T01:48:28.963Z,41.22
2023-01-25T01:51:01.086Z,40.50
2023-01-25T01:53:31.967Z,39.83
2023-01-25T01:56:03.901Z,38.97
2023-01-25T01:58:34.794Z,36.65
2023-01-25T02:01:03.715Z,38.63
2023-01-25T02:03:34.352Z,35.27
2023-01-25T02:06:08.981Z,33.17
2023-01-25T02:08:41.134Z,35.30
2023-01-25T02:11:11.284Z,35.80
2023-01-25T02:13:41.689Z,35.38
2023-01-25T02:16:16.977Z,33.92
2023-01-25T02:18:45.560Z,31.65
2023-01-25T02:21:14.426Z,33.75
2023-01-25T02:23:49.404Z,31.40
2023-01-25T02:26:20.175Z,30.98
2023-01-25T02:28:53.767Z,32.63
2023-01-25T02:31:22.397Z,31.67
2023-01-25T02:33:51.260Z,31.25
2023-01-25T02:36:24.313Z,30.05
2023-01-25T02:38:58.516Z,31.60
2023-01-25T02:41:33.716Z,30.30
2023-01-25T02:44:02.979Z,31.02
2023-01-25T02:46:33.288Z,31.90
2023-01-25T02:49:02.366Z,29.08
2023-01-25T02:51:32.512Z,27.35
2023-01-25T02:54:01.836Z,28.77
2023-01-25T02:56:32.262Z,29.30
2023-01-25T02:59:05.679Z,26.17
2023-01-25T03:01:34.935Z,27.45
2023-01-25T03:04:03.650Z,29.63
2023-01-25T03:06:32.349Z,27.02
2023-01-25T03:09:01.357Z,29.17
2023-01-25T03:11:31.695Z,30.43
2023-01-25T03:14:00.757Z,29.02
2023-01-25T03:16:29.504Z,28.10
2023-01-25T03:18:58.318Z,27.33
2023-01-25T03:21:27.421Z,27.55
2023-01-25T03:23:58.181Z,27.63
2023-01-25T03:26:28.299Z,28.10
2023-01-25T03:28:58.529Z,27.95
2023-01-25T03:31:27.102Z,28.52
2023-01-25T03:33:55.859Z,29.30
2023-01-25T03:36:24.604Z,30.25
2023-01-25T03:38:53.328Z,30.70
2023-01-25T03:41:22.016Z,29.17
2023-01-25T03:43:50.642Z,30.90
2023-01-25T03:46:20.675Z,30.20
2023-01-25T03:48:49.370Z,29.30
2023-01-25T03:51:18.132Z,27.55
2023-01-25T03:53:46.654Z,30.27
2023-01-25T03:56:19.939Z,30.52
2023-01-25T03:58:48.551Z,29.13
2023-01-25T04:01:17.283Z,29.17
2023-01-25T04:03:47.333Z,31.30
2023-01-25T04:06:15.840Z,29.92
2023-01-25T04:08:44.219Z,30.38
2023-01-25T04:11:13.233Z,30.98
2023-01-25T04:13:41.756Z,29.90
2023-01-25T04:16:12.533Z,30.27
2023-01-25T04:18:41.310Z,30.70
2023-01-25T04:21:11.229Z,30.55
2023-01-25T04:23:40.316Z,31.38
2023-01-25T04:26:12.475Z,32.78
2023-01-25T04:28:41.568Z,33.17
2023-01-25T04:31:10.352Z,33.83
2023-01-25T04:33:39.631Z,33.03
2023-01-25T04:36:10.624Z,48.47
2023-01-25T04:38:39.311Z,39.92
2023-01-25T04:41:07.953Z,31.80
2023-01-25T04:43:37.030Z,31.80
2023-01-25T04:46:05.993Z,31.90
2023-01-25T04:48:34.692Z,32.50
2023-01-25T04:51:03.469Z,31.33
2023-01-25T04:53:33.477Z,22.20
2023-01-25T04:56:02.123Z,31.83
2023-01-25T04:58:31.009Z,34.80
2023-01-25T05:01:02.423Z,33.80
2023-01-25T05:03:31.171Z,31.77
2023-01-25T05:05:59.831Z,32.95
2023-01-25T05:08:28.551Z,32.55
2023-01-25T05:10:58.547Z,29.27
2023-01-25T05:13:27.336Z,33.05
2023-01-25T05:15:57.682Z,36.23
2023-01-25T05:18:30.940Z,35.00
2023-01-25T05:21:01.794Z,44.85
2023-01-25T05:23:30.314Z,37.03
2023-01-25T05:26:17.902Z,30.70
2023-01-25T05:28:46.452Z,34.58
2023-01-25T05:31:15.222Z,31.33
2023-01-25T05:33:43.836Z,32.80
2023-01-25T05:36:12.373Z,31.85
2023-01-25T05:38:40.811Z,44.33
2023-01-25T05:41:10.975Z,43.35
2023-01-25T05:43:39.922Z,46.22
2023-01-25T05:46:08.573Z,38.07
2023-01-25T05:48:37.225Z,45.72
2023-01-25T05:51:05.929Z,47.53
2023-01-25T05:53:34.587Z,30.50
2023-01-25T05:56:06.355Z,29.55
2023-01-25T05:58:36.230Z,42.78
2023-01-25T06:01:06.872Z,44.97
2023-01-25T06:03:36.043Z,51.78
2023-01-25T06:06:05.348Z,30.33
2023-01-25T06:08:34.093Z,29.33
2023-01-25T06:11:08.187Z,33.08
2023-01-25T06:13:38.205Z,27.00
2023-01-25T06:16:07.586Z,28.88
2023-01-25T06:18:36.996Z,28.30
2023-01-25T06:21:06.522Z,26.10
2023-01-25T06:23:35.285Z,27.88
2023-01-25T06:26:05.810Z,27.02
2023-01-25T06:28:35.404Z,25.83
2023-01-25T06:31:10.942Z,23.98
2023-01-25T06:33:40.834Z,25.27
2023-01-25T06:36:12.799Z,25.92
2023-01-25T06:38:41.920Z,25.48
2023-01-25T06:41:13.071Z,23.77
2023-01-25T06:43:41.757Z,26.48
2023-01-25T06:46:13.285Z,28.10
2023-01-25T06:48:43.112Z,31.25
2023-01-25T06:51:14.284Z,26.98
2023-01-25T06:53:44.378Z,69.65
2023-01-25T06:56:14.792Z,40.53
2023-01-25T06:58:43.281Z,29.38
2023-01-25T07:01:16.462Z,53.58
2023-01-25T07:03:44.960Z,45.33
2023-01-25T07:06:13.664Z,41.80
2023-01-25T07:08:42.457Z,35.22
2023-01-25T07:11:14.112Z,34.07
2023-01-25T07:13:45.623Z,23.48
2023-01-25T07:16:18.248Z,24.77
2023-01-25T07:18:47.168Z,24.98
2023-01-25T07:21:17.409Z,24.77
2023-01-25T07:23:46.407Z,25.27
2023-01-25T07:26:18.602Z,22.55
2023-01-25T07:28:47.493Z,21.40
2023-01-25T07:31:19.270Z,24.13
2023-01-25T07:33:50.309Z,25.33
2023-01-25T07:36:19.559Z,25.38
2023-01-25T07:38:48.530Z,22.25
2023-01-25T07:41:17.308Z,23.37
2023-01-25T07:43:45.905Z,38.13
2023-01-25T07:46:15.640Z,55.50
2023-01-25T07:51:23.663Z,35.22
2023-01-25T07:53:54.211Z,26.75
2023-01-25T07:56:24.710Z,20.23
2023-01-25T07:58:54.708Z,20.30
2023-01-25T08:01:25.882Z,21.10
2023-01-25T08:03:57.277Z,18.70
2023-01-25T08:06:27.367Z,19.27
2023-01-25T08:08:56.565Z,19.27
2023-01-25T08:11:27.697Z,16.42
2023-01-25T08:13:56.641Z,17.45
2023-01-25T08:16:27.118Z,16.57
2023-01-25T08:18:59.387Z,17.83
2023-01-25T08:21:30.395Z,19.23
2023-01-25T08:24:00.012Z,19.73
2023-01-25T08:26:29.340Z,21.00
2023-01-25T08:28:58.497Z,22.08
2023-01-25T08:31:28.652Z,21.42
2023-01-25T08:33:59.546Z,18.30
2023-01-25T08:36:29.396Z,18.15
2023-01-25T08:38:59.631Z,17.70
2023-01-25T08:41:29.995Z,16.25
2023-01-25T08:43:59.541Z,21.55
2023-01-25T08:46:31.984Z,17.45
2023-01-25T08:49:03.370Z,18.92
2023-01-25T08:51:33.822Z,17.00
2023-01-25T08:54:06.481Z,20.27
2023-01-25T08:56:37.736Z,17.95
2023-01-25T08:59:06.852Z,17.83
2023-01-25T09:01:35.953Z,18.63
2023-01-25T09:04:06.697Z,19.58
2023-01-25T09:06:35.486Z,19.48
2023-01-25T09:09:04.803Z,19.20
2023-01-25T09:11:37.107Z,19.65
2023-01-25T09:14:06.083Z,22.42
2023-01-25T09:16:34.702Z,25.20
2023-01-25T09:19:06.744Z,19.73
2023-01-25T09:21:37.205Z,17.20
2023-01-25T09:24:07.883Z,16.92
2023-01-25T09:26:38.765Z,35.17
2023-01-25T09:29:08.882Z,20.55
2023-01-25T09:31:43.519Z,20.10
2023-01-25T09:34:17.386Z,40.42
2023-01-25T09:36:46.487Z,40.38
2023-01-25T09:39:15.394Z,23.75
2023-01-25T09:42:06.792Z,19.77
2023-01-25T09:45:11.701Z,29.75
2023-01-25T09:47:51.939Z,18.45
2023-01-25T09:50:36.267Z,15.50
2023-01-25T09:53:25.367Z,17.08
2023-01-25T09:55:58.867Z,35.85
2023-01-25T09:58:35.922Z,18.30
2023-01-25T10:01:36.644Z,15.57
2023-01-25T10:04:14.638Z,14.73
2023-01-25T10:06:59.708Z,15.82
2023-01-25T10:09:38.936Z,14.95
2023-01-25T10:12:17.404Z,17.38
2023-01-25T10:14:46.456Z,25.77
2023-01-25T10:17:20.565Z,20.60
2023-01-25T10:20:04.882Z,41.17
2023-01-25T10:22:41.437Z,100.40
2023-01-25T10:25:24.551Z,90.07
2023-01-25T10:28:05.423Z,94.43
2023-01-25T10:30:40.230Z,70.57
2023-01-25T10:33:17.125Z,54.03
2023-01-25T10:35:48.211Z,61.65
2023-01-25T10:38:24.647Z,22.63
2023-01-25T10:40:58.450Z,16.70
2023-01-25T10:43:27.439Z,17.85
2023-01-25T10:45:57.384Z,16.83
2023-01-25T10:48:31.165Z,17.70
2023-01-25T10:51:01.021Z,17.67
2023-01-25T10:53:36.633Z,20.02
2023-01-25T10:56:22.353Z,22.65
2023-01-25T10:58:56.180Z,18.95
2023-01-25T11:01:33.252Z,18.40
2023-01-25T11:04:03.066Z,18.25
2023-01-25T11:09:24.893Z,17.08
2023-01-25T11:11:57.767Z,17.05
2023-01-25T11:14:28.777Z,17.33
2023-01-25T11:16:58.934Z,16.50
2023-01-25T11:19:32.579Z,16.85
2023-01-25T11:22:02.919Z,17.38
2023-01-25T11:24:35.678Z,15.27
2023-01-25T11:27:17.906Z,15.90
2023-01-25T11:29:47.995Z,17.27
2023-01-25T11:32:22.979Z,17.58
2023-01-25T11:34:52.805Z,16.70
2023-01-25T11:37:32.617Z,17.38
2023-01-25T11:40:16.248Z,18.17
2023-01-25T11:43:00.082Z,16.98
2023-01-25T11:46:02.974Z,17.00
2023-01-25T11:49:02.012Z,18.17
2023-01-25T11:51:37.357Z,17.73
2023-01-25T11:54:35.658Z,17.58
2023-01-25T11:57:19.386Z,19.15
2023-01-25T12:00:02.221Z,19.08
2023-01-25T12:02:56.312Z,18.60
2023-01-25T12:05:38.752Z,17.95
2023-01-25T12:08:25.008Z,18.42
2023-01-25T12:11:03.701Z,19.80
2023-01-25T12:13:43.162Z,16.50
2023-01-25T12:16:30.373Z,18.67
2023-01-25T12:19:21.649Z,19.17
2023-01-25T12:22:16.905Z,20.85
2023-01-25T12:24:53.602Z,18.17
2023-01-25T12:27:36.308Z,19.40
2023-01-25T12:30:18.078Z,18.77
2023-01-25T12:32:53.909Z,18.23
2023-01-25T12:35:31.996Z,17.25
2023-01-25T12:38:05.665Z,18.73
2023-01-25T12:40:44.872Z,20.75
2023-01-25T12:43:21.603Z,18.35
2023-01-25T12:45:59.441Z,17.92
2023-01-25T12:48:35.283Z,18.13
2023-01-25T12:51:03.979Z,19.60
2023-01-25T12:53:38.477Z,18.92
2023-01-25T12:56:09.697Z,18.50
2023-01-25T12:58:45.707Z,18.38
2023-01-25T13:01:24.958Z,28.85
2023-01-25T13:04:05.969Z,21.67
2023-01-25T13:06:44.877Z,18.67
2023-01-25T13:09:21.313Z,19.60
2023-01-25T13:11:51.081Z,18.27
2023-01-25T13:17:24.777Z,13.70
2023-01-25T13:19:54.693Z,15.60
2023-01-25T13:22:58.949Z,16.27
2023-01-25T13:25:28.592Z,17.15
2023-01-25T13:28:33.930Z,24.15
2023-01-25T13:31:02.537Z,16.02
2023-01-25T13:33:37.032Z,15.48
2023-01-25T13:36:40.000Z,16.58
2023-01-25T13:39:44.408Z,16.05
2023-01-25T13:42:22.734Z,17.23
2023-01-25T13:44:53.307Z,19.55
2023-01-25T13:47:24.890Z,19.35
2023-01-25T13:50:03.519Z,19.48
2023-01-25T13:52:32.418Z,17.25
2023-01-25T13:55:01.122Z,19.87
2023-01-25T13:57:32.480Z,17.45
2023-01-25T14:00:11.071Z,18.15
2023-01-25T14:02:41.856Z,17.17
2023-01-25T14:05:21.748Z,17.27
2023-01-25T14:07:53.759Z,18.15
2023-01-25T14:10:26.713Z,18.52
2023-01-25T14:12:59.776Z,18.58
2023-01-25T14:15:30.169Z,19.17
2023-01-25T14:18:11.042Z,21.58
2023-01-25T14:20:41.755Z,18.02
2023-01-25T14:23:24.848Z,17.90
2023-01-25T14:25:55.551Z,16.40
2023-01-25T14:28:24.842Z,18.23
2023-01-25T14:30:55.835Z,17.90
2023-01-25T14:33:27.544Z,16.70
2023-01-25T14:36:16.129Z,16.25
2023-01-25T14:38:52.777Z,16.98
2023-01-25T14:41:25.643Z,14.03
2023-01-25T14:43:56.401Z,18.88
2023-01-25T14:46:29.077Z,18.65
2023-01-25T14:49:25.511Z,18.48
2023-01-25T14:52:03.473Z,19.67
2023-01-25T14:54:35.526Z,18.85
2023-01-25T14:57:05.784Z,17.83
2023-01-25T14:59:38.382Z,18.85
2023-01-25T15:02:21.320Z,21.42
2023-01-25T15:04:55.752Z,21.77
2023-01-25T15:07:44.770Z,18.15
2023-01-25T15:10:19.719Z,20.00
2023-01-25T15:13:18.413Z,19.42
2023-01-25T15:15:56.585Z,19.35
2023-01-25T15:18:45.115Z,22.38
2023-01-25T15:21:15.769Z,21.50
2023-01-25T15:23:47.687Z,21.45
2023-01-25T15:26:20.980Z,21.38
2023-01-25T15:28:50.279Z,21.23
2023-01-25T15:31:20.131Z,22.45
2023-01-25T15:33:49.309Z,20.42
2023-01-25T15:36:18.538Z,19.67
2023-01-25T15:38:49.098Z,17.02
2023-01-25T15:41:18.644Z,18.38
2023-01-25T15:43:47.680Z,18.27
2023-01-25T15:46:19.745Z,18.05
2023-01-25T15:48:49.529Z,19.60
2023-01-25T15:53:48.532Z,15.68
2023-01-25T15:56:18.925Z,19.05
2023-01-25T15:58:51.108Z,23.65
2023-01-25T16:01:20.677Z,60.40
2023-01-25T16:03:49.212Z,53.08
2023-01-25T16:06:34.267Z,20.17
2023-01-25T16:09:12.506Z,21.08
2023-01-25T16:11:41.268Z,26.23
2023-01-25T16:14:09.885Z,39.28
2023-01-25T16:16:44.494Z,46.97
2023-01-25T16:19:14.840Z,45.10
2023-01-25T16:21:44.248Z,39.58
2023-01-25T16:24:14.697Z,35.75
2023-01-25T16:26:47.533Z,33.50
2023-01-25T16:29:16.163Z,25.20
2023-01-25T16:31:45.023Z,22.60
2023-01-25T16:34:13.824Z,21.27
2023-01-25T16:36:47.795Z,21.73
2023-01-25T16:39:20.430Z,22.67
2023-01-25T16:41:49.690Z,20.77
2023-01-25T16:44:18.689Z,26.45
2023-01-25T16:46:49.084Z,23.17
2023-01-25T16:49:19.708Z,22.33
2023-01-25T16:51:49.118Z,24.50
2023-01-25T16:54:20.624Z,27.08
2023-01-25T16:56:50.357Z,26.42
2023-01-25T17:01:48.803Z,31.73
2023-01-25T17:04:17.791Z,24.38
2023-01-25T17:06:49.007Z,23.10
2023-01-25T17:09:25.473Z,23.73
2023-01-25T17:11:54.588Z,22.20
2023-01-25T17:14:24.339Z,24.55
2023-01-25T17:19:22.270Z,27.63
2023-01-25T17:21:50.833Z,23.67
2023-01-25T17:24:22.321Z,22.08
2023-01-25T17:26:51.495Z,23.60
2023-01-25T17:29:20.114Z,25.73
2023-01-25T17:31:49.210Z,25.25
2023-01-25T17:34:19.847Z,25.60
2023-01-25T17:36:48.895Z,24.15
2023-01-25T17:39:20.704Z,24.95
2023-01-25T17:41:51.714Z,26.73
2023-01-25T17:44:21.548Z,25.75
2023-01-25T17:46:51.099Z,27.23
2023-01-25T17:49:22.335Z,25.83
2023-01-25T17:51:50.999Z,21.65
2023-01-25T17:54:20.985Z,23.92
2023-01-25T17:56:49.657Z,30.95
2023-01-25T17:59:18.608Z,22.27
2023-01-25T18:01:48.323Z,24.10
2023-01-25T18:06:46.541Z,23.27
2023-01-25T18:09:15.176Z,24.35
2023-01-25T18:11:45.284Z,25.52
2023-01-25T18:14:16.951Z,25.30
2023-01-25T18:16:45.743Z,26.77
2023-01-25T18:19:14.711Z,25.83
2023-01-25T18:21:43.894Z,28.37
2023-01-25T18:24:28.812Z,26.35
2023-01-25T18:27:02.643Z,24.65
2023-01-25T18:29:47.573Z,25.17
2023-01-25T18:32:16.901Z,24.58
2023-01-25T18:34:46.815Z,23.10
2023-01-25T18:37:21.790Z,26.02
2023-01-25T18:39:52.106Z,28.42
2023-01-25T18:42:23.779Z,28.95
2023-01-25T18:44:52.644Z,32.22
2023-01-25T18:47:23.137Z,27.93
2023-01-25T18:49:53.462Z,26.30
2023-01-25T18:52:24.460Z,30.83
2023-01-25T18:54:53.741Z,30.80
2023-01-25T18:57:24.006Z,27.05
2023-01-25T18:59:54.422Z,28.63
2023-01-25T19:02:23.920Z,29.88
2023-01-25T19:04:52.407Z,35.00
2023-01-25T19:07:21.335Z,44.25
2023-01-25T19:09:49.962Z,38.27
2023-01-25T19:12:18.734Z,46.05
2023-01-25T19:14:49.033Z,52.05
2023-01-25T19:17:17.787Z,33.08
2023-01-25T19:19:46.346Z,33.28
2023-01-25T19:22:14.937Z,33.53
2023-01-25T19:24:43.572Z,33.05
2023-01-25T19:27:12.051Z,30.60
2023-01-25T19:29:40.680Z,30.42
2023-01-25T19:32:11.063Z,30.05
2023-01-25T19:34:39.883Z,31.15
2023-01-25T19:37:08.478Z,32.40
2023-01-25T19:39:37.076Z,28.98
2023-01-25T19:42:06.806Z,29.35
2023-01-25T19:47:04.383Z,26.27
2023-01-25T19:49:34.296Z,29.00
2023-01-25T19:52:03.511Z,31.77
2023-01-25T19:54:32.092Z,33.50
2023-01-25T19:57:00.772Z,31.75
2023-01-25T19:59:29.945Z,33.40
2023-01-25T20:01:58.403Z,29.67
2023-01-25T20:04:27.113Z,35.03
2023-01-25T20:06:57.095Z,31.98
2023-01-25T20:09:28.111Z,35.13
2023-01-25T20:11:58.255Z,33.50
2023-01-25T20:14:27.035Z,33.63
2023-01-25T20:16:55.720Z,31.15
2023-01-25T20:19:24.410Z,29.92
2023-01-25T20:21:53.041Z,30.38
2023-01-25T20:24:23.510Z,31.75
2023-01-25T20:26:52.632Z,29.88
2023-01-25T20:29:22.345Z,28.88
2023-01-25T20:34:21.500Z,28.63
2023-01-25T20:36:50.897Z,27.35
2023-01-25T20:39:21.048Z,28.50
2023-01-25T20:41:53.944Z,29.83
2023-01-25T20:44:22.712Z,28.90
2023-01-25T20:46:54.452Z,30.60
2023-01-25T20:49:23.351Z,31.27
2023-01-25T20:51:52.219Z,34.40
2023-01-25T20:54:24.287Z,30.02
2023-01-25T20:56:54.311Z,31.02
2023-01-25T20:59:23.007Z,30.70
2023-01-25T21:01:51.778Z,30.98
2023-01-25T21:04:20.481Z,32.38
2023-01-25T21:06:49.095Z,31.45
2023-01-25T21:09:17.879Z,30.92
2023-01-25T21:11:46.450Z,29.17
2023-01-25T21:14:17.211Z,28.77
2023-01-25T21:16:45.739Z,31.27
2023-01-25T21:19:14.280Z,34.47
2023-01-25T21:21:42.923Z,36.75
2023-01-25T21:24:11.841Z,32.10
2023-01-25T21:26:40.555Z,31.42
2023-01-25T21:29:09.559Z,33.10
2023-01-25T21:31:42.493Z,31.90
2023-01-25T21:34:11.646Z,32.35
2023-01-25T21:36:40.878Z,29.90
2023-01-25T21:39:10.150Z,29.15
2023-01-25T21:41:38.774Z,30.55
2023-01-25T21:44:25.016Z,31.25
2023-01-25T21:50:00.912Z,26.10
2023-01-25T21:52:29.638Z,26.13
2023-01-25T21:54:58.483Z,27.52
2023-01-25T21:57:27.145Z,25.20
2023-01-25T21:59:55.586Z,27.20
2023-01-25T22:02:26.226Z,28.20
2023-01-25T22:04:56.623Z,29.63
2023-01-25T22:07:25.258Z,26.25
2023-01-25T22:09:53.863Z,27.58
2023-01-25T22:12:22.336Z,27.23
2023-01-25T22:14:51.379Z,27.65
2023-01-25T22:17:22.683Z,27.70
2023-01-25T22:19:52.914Z,25.92
2023-01-25T22:22:21.656Z,27.92
2023-01-25T22:24:50.402Z,29.20
2023-01-25T22:27:37.027Z,28.38
2023-01-25T22:30:07.032Z,28.38
2023-01-25T22:32:36.102Z,28.17
2023-01-25T22:35:06.810Z,29.85
2023-01-25T22:37:38.046Z,29.80
2023-01-25T22:40:10.251Z,29.50
2023-01-25T22:42:39.137Z,29.17
2023-01-25T22:45:09.374Z,31.73
2023-01-25T22:47:40.277Z,28.42
2023-01-25T22:50:12.719Z,29.40
2023-01-25T22:52:41.865Z,30.45
2023-01-25T22:55:11.415Z,31.27
2023-01-25T22:57:40.399Z,27.67
2023-01-25T23:00:12.531Z,31.10
2023-01-25T23:02:41.415Z,29.88
2023-01-25T23:05:11.762Z,30.88
2023-01-25T23:07:40.773Z,31.10
2023-01-25T23:10:13.218Z,25.23
2023-01-25T23:12:41.808Z,31.75
2023-01-25T23:15:15.350Z,33.80
2023-01-25T23:18:01.626Z,36.90
2023-01-25T23:20:32.179Z,38.45
2023-01-25T23:23:01.139Z,37.47
2023-01-25T23:25:31.217Z,36.47
2023-01-25T23:28:00.127Z,34.25
2023-01-25T23:30:28.891Z,36.10
2023-01-25T23:32:57.703Z,35.08
2023-01-25T23:35:27.496Z,38.30
2023-01-25T23:40:26.768Z,35.25
2023-01-25T23:42:56.069Z,38.42
2023-01-25T23:45:24.725Z,40.72
2023-01-25T23:47:53.294Z,40.95
2023-01-25T23:50:22.115Z,42.67
2023-01-25T23:52:52.150Z,44.90
2023-01-25T23:55:22.667Z,45.08
2023-01-25T23:57:53.713Z,46.83
